Date,TemperatureHighF,TemperatureAvgF,TemperatureLowF,DewpointHighF,DewpointAvgF,DewpointLowF,HumidityHigh,HumidityAvg,HumidityLow,PressureMaxIn,PressureMinIn,WindSpeedMaxMPH,WindSpeedAvgMPH,GustSpeedMaxMPH,PrecipitationSumIn
2013-1-1,68,66,63,68,66,63,100,100,100,0.00,40.00,8,6,21,0.17
2013-1-2,72,67,64,70,67,64,100,99,92,0.00,40.00,7,4,24,0.05
2013-1-3,71,67,64,70,67,64,100,100,95,0.00,40.00,8,4,19,0.27
2013-1-4,70,66,64,70,66,64,100,100,99,0.00,40.00,9,5,21,0.32
2013-1-5,70,67,64,70,67,64,100,99,96,0.00,40.00,18,10,31,0.63
2013-1-6,75,70,66,71,68,64,100,93,83,0.00,40.00,11,7,30,0.03
2013-1-7,74,69,65,72,68,65,100,97,85,0.00,40.00,8,4,20,0.06
2013-1-8,74,68,64,70,67,64,100,96,80,0.00,40.00,10,4,22,0.04
2013-1-9,77,70,65,71,68,65,100,96,80,0.00,40.00,11,5,23,0.02
2013-1-10,78,69,62,69,66,61,100,89,69,0.00,40.00,8,4,18,0.00
2013-1-11,78,69,61,68,65,61,100,90,68,0.00,40.00,8,4,17,0.00
2013-1-12,75,68,61,72,67,61,100,97,80,0.00,40.00,8,4,17,0.00
2013-1-13,78,71,64,72,69,64,100,93,72,0.00,40.00,9,5,20,0.00
2013-1-14,71,68,64,71,68,63,100,99,92,0.00,40.00,10,6,36,1.27
2013-1-15,77,66,55,69,64,55,100,93,76,0.00,40.00,8,4,19,0.03
2013-1-16,75,64,53,68,61,53,100,91,68,0.00,40.00,9,5,19,0.06
2013-1-17,72,63,55,65,60,55,100,92,70,0.00,40.00,8,4,18,0.08
2013-1-18,74,64,55,67,61,55,100,90,70,0.00,40.00,10,5,22,0.00
2013-1-19,72,66,60,62,58,55,90,77,59,0.00,40.00,12,9,30,0.00
2013-1-20,75,66,61,62,60,57,94,81,62,0.00,40.00,9,6,22,0.00
2013-1-21,75,67,60,66,63,59,96,86,71,0.00,40.00,12,6,32,0.00
2013-1-22,76,68,60,68,64,60,100,87,63,0.00,40.00,7,4,35,0.00
2013-1-23,73,67,63,69,66,61,100,95,85,0.00,40.00,8,4,31,0.06
2013-1-24,71,66,60,70,66,60,100,100,98,0.00,40.00,5,3,13,0.40
2013-1-25,79,67,57,70,64,57,100,93,71,0.00,40.00,5,4,13,0.02
2013-1-26,78,66,57,71,65,57,100,94,75,0.00,40.00,12,6,25,0.01
2013-1-27,74,67,59,71,66,59,100,97,88,0.00,40.00,12,9,29,2.45
2013-1-28,72,65,60,70,65,60,100,99,92,0.00,40.00,6,4,14,1.37
2013-1-29,75,65,57,70,64,57,100,96,81,0.00,40.00,10,4,21,0.01
2013-1-30,77,66,57,71,64,57,100,94,75,0.00,40.00,11,5,18,0.01
2013-1-31,77,68,58,71,66,58,100,93,74,0.00,40.00,6,4,19,0.00
2013-2-1,77,68,60,66,62,55,100,81,47,0.00,40.00,10,5,29,0.00
2013-2-2,77,68,57,67,63,57,100,87,68,0.00,40.00,9,5,26,0.00
2013-2-3,78,64,52,66,59,52,100,85,59,0.00,40.00,9,5,18,0.00
2013-2-4,71,67,65,68,63,60,100,87,75,0.00,40.00,7,5,26,0.03
2013-2-5,73,66,61,65,63,61,100,90,70,0.00,40.00,10,5,27,0.04
2013-2-6,74,66,59,69,65,59,100,97,83,0.00,40.00,10,4,38,0.07
2013-2-7,76,67,59,70,65,59,100,95,79,0.00,40.00,9,4,32,0.01
2013-2-8,79,69,59,69,64,59,100,87,61,0.00,40.00,7,4,30,0.00
2013-2-9,76,66,57,68,62,57,100,89,66,0.00,40.00,9,5,20,0.00
2013-2-10,73,67,60,69,66,60,100,96,85,0.00,40.00,8,3,16,0.08
2013-2-11,74,67,64,72,66,63,100,98,89,0.00,40.00,10,4,25,0.01
2013-2-12,71,65,59,65,62,57,100,91,78,0.00,40.00,9,4,24,0.01
2013-2-13,72,66,62,63,60,57,100,83,65,0.00,40.00,8,4,22,0.00
2013-2-14,74,66,56,64,61,56,100,88,68,0.00,40.00,9,4,21,0.02
2013-2-15,76,68,57,67,63,57,100,87,66,0.00,40.00,10,5,30,0.02
2013-2-16,73,67,62,66,63,60,100,87,70,0.00,40.00,11,6,27,0.09
2013-2-17,74,68,63,64,62,59,96,82,69,0.00,40.00,15,8,32,0.01
2013-2-18,73,67,61,65,62,58,100,83,68,0.00,40.00,15,8,32,0.02
2013-2-19,72,66,61,67,63,59,100,89,73,0.00,40.00,12,8,26,0.20
2013-2-20,74,67,61,68,64,61,100,91,76,0.00,40.00,11,6,28,0.18
2013-2-21,69,65,61,69,65,61,100,99,92,0.00,40.00,7,4,18,0.90
2013-2-22,73,66,62,69,66,62,100,98,87,0.00,40.00,12,5,24,0.92
2013-2-23,74,66,62,69,65,62,100,95,82,0.00,40.00,9,4,22,0.08
2013-2-24,74,67,62,67,64,61,100,90,75,0.00,40.00,12,6,27,0.07
2013-2-25,74,67,62,66,64,61,100,89,73,0.00,40.00,10,5,25,0.01
2013-2-26,72,67,61,67,64,61,100,93,77,0.00,40.00,9,5,22,0.04
2013-2-27,76,68,59,65,62,59,100,84,63,0.00,40.00,14,6,28,0.05
2013-2-28,75,67,60,64,62,58,100,83,61,0.00,40.00,10,6,22,0.01
2013-3-1,72,67,63,64,61,58,92,83,69,0.00,40.00,11,6,25,0.01
2013-3-2,74,68,63,65,61,59,95,79,60,0.00,40.00,16,7,33,0.01
2013-3-3,74,67,60,61,58,53,88,76,60,0.00,40.00,11,6,27,0.00
2013-3-4,74,67,61,63,60,56,89,77,65,0.00,40.00,10,5,24,0.00
2013-3-5,79,66,55,64,60,55,100,82,57,0.00,40.00,9,5,21,0.00
2013-3-6,77,66,58,67,62,57,100,88,63,0.00,40.00,9,4,19,0.00
2013-3-7,77,64,54,68,61,54,100,90,61,0.00,40.00,9,4,18,0.00
2013-3-8,79,66,52,66,59,52,100,80,46,0.00,40.00,11,6,23,0.00
2013-3-9,75,70,65,68,66,63,100,86,70,0.00,40.00,13,8,32,0.25
2013-3-10,70,65,59,70,65,59,100,100,96,0.00,40.00,7,4,15,1.04
2013-3-11,75,66,56,70,63,56,100,93,74,0.00,40.00,7,4,17,0.02
2013-3-12,76,66,57,68,62,57,100,89,67,0.00,40.00,9,5,22,0.00
2013-3-13,74,65,56,66,61,56,100,90,67,0.00,40.00,11,5,19,0.01
2013-3-14,75,65,58,68,62,58,100,90,67,0.00,40.00,7,4,15,0.01
2013-3-15,72,64,55,65,60,55,100,89,71,0.00,40.00,16,6,25,0.04
2013-3-16,71,65,60,63,60,57,100,83,68,0.00,40.00,13,8,26,0.04
2013-3-17,72,63,55,62,59,55,100,87,56,0.00,40.00,9,4,19,0.02
2013-3-18,72,62,53,65,59,53,100,90,70,0.00,40.00,8,5,18,0.01
2013-3-19,78,66,53,67,61,53,100,88,61,0.00,40.00,10,4,25,0.00
2013-3-20,79,68,56,69,64,56,100,88,66,0.00,40.00,11,5,23,0.00
2013-3-21,78,70,57,72,66,57,100,89,69,0.00,40.00,11,7,24,0.00
2013-3-22,77,71,65,72,69,63,100,95,80,0.00,40.00,12,6,31,0.61
2013-3-23,71,66,63,69,66,63,100,99,86,0.00,40.00,7,4,19,0.33
2013-3-24,68,66,63,68,66,59,100,100,100,0.00,40.00,6,4,13,0.23
2013-3-25,79,68,59,73,67,59,100,96,78,0.00,40.00,6,4,16,0.10
2013-3-26,79,68,60,72,66,60,100,94,78,0.00,40.00,7,4,14,0.01
2013-3-27,70,66,61,70,66,61,100,100,100,0.00,40.00,7,5,20,1.36
2013-3-28,77,71,63,69,66,63,100,86,71,0.00,40.00,10,5,21,0.01
2013-3-29,75,67,60,69,65,60,100,94,82,0.00,40.00,10,5,20,0.05
2013-3-30,75,67,60,71,65,60,100,93,76,0.00,40.00,12,6,24,0.02
2013-3-31,70,65,60,62,57,53,92,75,65,0.00,40.00,10,8,26,0.00
2013-4-1,68,64,60,63,59,56,100,86,75,0.00,40.00,12,8,24,0.03
2013-4-2,72,64,54,62,58,54,100,82,59,0.00,40.00,11,5,22,0.01
2013-4-3,73,64,53,65,60,53,100,90,70,0.00,40.00,8,4,15,0.00
2013-4-4,79,67,55,68,62,55,100,88,60,0.00,40.00,8,4,17,0.00
2013-4-5,78,68,58,70,63,58,100,87,67,0.00,40.00,10,5,19,0.00
2013-4-6,80,71,62,73,68,62,100,92,75,0.00,40.00,9,5,22,0.06
2013-4-7,81,70,61,73,67,60,100,90,70,0.00,40.00,8,5,18,0.01
2013-4-8,79,70,60,70,65,60,100,87,63,0.00,40.00,10,5,21,0.00
2013-4-9,80,69,60,70,65,60,100,87,66,0.00,40.00,9,4,22,0.00
2013-4-10,80,72,62,71,67,62,100,85,65,0.00,40.00,11,5,23,0.00
2013-4-11,83,72,60,72,68,60,100,88,62,0.00,40.00,8,4,18,0.00
2013-4-12,79,71,63,72,69,62,100,92,77,0.00,40.00,10,5,43,0.00
2013-4-13,77,70,62,74,69,62,100,96,83,0.00,40.00,11,6,26,0.00
2013-4-14,78,70,66,71,68,66,100,94,75,0.00,40.00,17,6,33,0.75
2013-4-15,74,70,66,74,62,-100,100,96,97,0.00,40.00,9,4,18,0.38
2013-4-16,81,70,59,75,68,59,100,93,68,0.00,40.00,9,4,16,0.01
2013-4-17,81,70,61,73,67,61,100,91,74,0.00,40.00,11,5,20,0.00
2013-4-18,79,71,66,70,68,66,100,92,72,0.00,40.00,10,5,20,0.00
2013-4-19,76,69,60,74,68,60,100,97,83,0.00,40.00,11,5,26,0.10
2013-4-20,84,71,60,74,68,60,100,92,66,0.00,40.00,10,4,17,0.01
2013-4-21,78,70,61,73,68,61,100,94,74,0.00,40.00,13,5,46,0.00
2013-4-22,77,71,66,74,69,66,100,95,82,0.00,40.00,10,4,25,0.09
2013-4-23,79,71,66,75,70,66,100,97,78,0.00,40.00,12,6,24,0.04
2013-4-24,80,70,65,75,69,65,100,97,75,0.00,40.00,8,3,14,1.33
2013-4-25,80,72,63,73,67,63,100,86,69,0.00,40.00,11,5,21,0.05
2013-4-26,78,71,63,69,66,62,100,87,69,0.00,40.00,11,6,23,0.00
2013-4-27,80,69,59,71,66,59,100,89,64,0.00,40.00,9,4,42,0.00
2013-4-28,80,71,61,73,68,61,100,91,71,0.00,40.00,10,6,22,0.00
2013-4-29,79,72,66,74,71,65,100,95,82,0.00,40.00,12,7,25,0.05
2013-4-30,80,70,63,75,68,63,100,96,76,0.00,40.00,6,4,17,0.82
2013-5-1,80,72,62,72,67,62,100,87,67,0.00,40.00,11,5,25,0.01
2013-5-2,80,71,62,75,68,62,100,91,71,0.00,40.00,11,4,18,0.00
2013-5-3,85,70,61,70,67,61,100,89,60,0.00,40.00,8,4,16,0.00
2013-5-4,82,69,61,74,68,61,100,96,70,0.00,40.00,7,3,16,2.41
2013-5-5,72,68,65,72,68,65,100,100,100,0.00,40.00,9,5,24,1.23
2013-5-6,79,70,59,69,66,59,100,89,69,0.00,40.00,8,5,19,0.95
2013-5-7,78,69,59,72,66,59,100,91,79,0.00,40.00,10,5,20,0.01
2013-5-8,80,69,56,71,65,56,100,88,68,0.00,40.00,7,4,18,0.01
2013-5-9,79,70,61,74,68,61,100,93,73,0.00,40.00,11,5,21,0.01
2013-5-10,80,72,66,75,70,66,100,94,80,0.00,40.00,12,6,19,0.00
2013-5-11,81,71,67,72,69,67,100,93,74,0.00,40.00,8,5,19,0.00
2013-5-12,77,71,66,73,69,66,100,96,83,0.00,40.00,10,6,19,0.01
2013-5-13,78,72,67,75,71,67,100,95,82,0.00,40.00,10,5,22,0.33
2013-5-14,81,74,68,74,70,67,100,89,74,0.00,40.00,10,5,23,0.01
2013-5-15,80,73,67,71,69,67,100,89,70,0.00,40.00,10,5,19,0.00
2013-5-16,79,66,66,71,45,-100,100,87,69,0.00,40.00,12,6,24,0.01
2013-5-17,80,71,65,72,60,-100,100,87,65,0.00,40.00,9,5,22,0.05
2013-5-18,82,70,63,75,68,62,100,94,69,0.00,40.00,10,4,18,0.49
2013-5-19,79,69,61,73,68,61,100,95,78,0.00,40.00,11,6,23,0.20
2013-5-20,77,69,60,68,64,59,100,87,64,0.00,40.00,9,5,20,0.15
2013-5-21,80,69,57,69,64,57,100,86,57,0.00,40.00,10,4,17,0.01
2013-5-22,81,70,59,75,68,59,100,95,77,0.00,40.00,7,4,16,0.13
2013-5-23,85,74,61,75,69,61,100,86,66,0.00,40.00,7,4,19,0.02
2013-5-24,83,73,64,72,69,64,100,88,70,0.00,40.00,8,5,22,0.01
2013-5-25,79,72,66,74,70,66,100,94,82,0.00,40.00,13,5,24,0.01
2013-5-26,80,73,62,70,68,62,100,87,69,0.00,40.00,12,5,24,0.01
2013-5-27,80,72,64,71,68,64,100,87,70,0.00,40.00,11,6,24,0.00
2013-5-28,80,72,64,73,69,64,100,92,73,0.00,40.00,9,4,21,0.19
2013-5-29,80,71,63,76,70,63,100,96,80,0.00,40.00,8,4,15,0.60
2013-5-30,83,74,62,75,70,62,100,89,71,0.00,40.00,7,4,17,0.01
2013-5-31,81,73,65,75,71,65,100,94,74,0.00,40.00,8,4,20,0.03
2013-6-1,81,73,65,77,71,65,100,94,73,0.00,40.00,11,5,22,0.02
2013-6-2,81,75,69,77,72,67,100,92,77,0.00,40.00,11,6,23,0.03
2013-6-3,81,74,69,71,68,65,93,83,71,0.00,40.00,10,6,22,0.01
2013-6-4,80,74,69,71,69,67,99,86,73,0.00,40.00,11,5,24,0.01
2013-6-5,80,72,68,72,68,65,96,87,70,0.00,40.00,10,5,22,0.00
2013-6-6,79,72,66,70,68,65,99,85,71,0.00,40.00,9,5,19,0.00
2013-6-7,78,71,64,71,68,64,100,91,75,0.00,40.00,11,5,21,0.00
2013-6-8,79,72,64,71,68,64,100,88,67,0.00,40.00,13,6,25,0.02
2013-6-9,80,73,66,72,69,66,100,89,69,0.00,40.00,11,5,19,0.01
2013-6-10,81,73,66,71,69,66,100,87,71,0.00,40.00,9,4,19,0.01
2013-6-11,81,73,66,72,69,66,100,89,72,0.00,40.00,10,5,21,0.01
2013-6-12,79,73,68,73,70,67,100,91,70,0.00,40.00,10,5,23,0.01
2013-6-13,78,72,66,74,70,66,100,94,83,0.00,40.00,11,5,23,0.21
2013-6-14,78,72,66,72,69,66,100,92,76,0.00,40.00,10,5,24,0.33
2013-6-15,80,71,61,72,68,61,100,92,73,0.00,40.00,9,5,21,0.02
2013-6-16,80,72,64,72,68,64,100,88,68,0.00,40.00,12,5,24,0.01
2013-6-17,80,71,64,72,69,64,100,94,73,0.00,40.00,10,5,21,0.05
2013-6-18,81,72,67,73,70,67,100,93,71,0.00,40.00,10,4,24,0.14
2013-6-19,82,73,64,73,69,63,100,88,71,0.00,40.00,10,5,25,0.02